Xianyang, China
Current Conditions -  °F | °C
As of 1:00 AM on Friday 24 Oct 2014 (Local Time) from ZLXY Reporting Station
Haze Haze  
Wind Chill: 48°   Ceiling: Unl
Heat Index: 48°   Visibility: 1mi
Dew Point: 46°   Wind: 2mph
Humidity: 93%   Direction: NA
Pressure: 29.97"   Gusts: NA
Location:  34.37°N, 108.7°E
Report Text: ZLXY 231700Z VRB01MPS 1700 R05L/1000V1700D R05R/P2000 BRNSC09/08 Q1015 BECMG TL1750 1400 BR
Loading
Personal Weather Stations






























Interactive Weather Map
Tropical Storm Tracking
New forecast layout! Learn more

10-Day Weather Forecast

Advertisements
Track Severe Weather on mobile